createdAt,value
2022-12-08T00:00:08.452Z,10.45
2022-12-08T00:02:44.283Z,10.25
2022-12-08T00:05:29.277Z,9.82
2022-12-08T00:08:14.210Z,10.43
2022-12-08T00:10:51.057Z,9.43
2022-12-08T00:13:17.628Z,9.93
2022-12-08T00:15:44.206Z,9.45
2022-12-08T00:18:10.731Z,9.85
2022-12-08T00:20:37.317Z,9.43
2022-12-08T00:23:04.354Z,8.55
2022-12-08T00:25:34.830Z,9.57
2022-12-08T00:28:02.691Z,8.38
2022-12-08T00:30:29.238Z,9.35
2022-12-08T00:32:55.884Z,8.63
2022-12-08T00:35:22.405Z,7.72
2022-12-08T00:37:48.972Z,8.55
2022-12-08T00:40:15.490Z,8.98
2022-12-08T00:42:42.032Z,8.85
2022-12-08T00:45:08.918Z,9.02
2022-12-08T00:47:35.502Z,9.27
2022-12-08T00:50:02.513Z,8.82
2022-12-08T00:52:29.318Z,9.13
2022-12-08T00:54:55.995Z,8.52
2022-12-08T00:57:22.701Z,8.05
2022-12-08T00:59:49.228Z,8.68
2022-12-08T01:02:15.850Z,8.68
2022-12-08T01:04:42.487Z,9.02
2022-12-08T01:07:09.234Z,8.50
2022-12-08T01:09:36.014Z,9.10
2022-12-08T01:12:02.586Z,8.95
2022-12-08T01:14:29.116Z,9.38
2022-12-08T01:16:55.785Z,8.35
2022-12-08T01:19:22.408Z,8.70
2022-12-08T01:21:48.983Z,9.23
2022-12-08T01:24:18.544Z,9.15
2022-12-08T01:26:46.011Z,9.52
2022-12-08T01:29:12.991Z,8.88
2022-12-08T01:31:40.281Z,9.20
2022-12-08T01:34:08.183Z,9.93
2022-12-08T01:36:38.686Z,9.75
2022-12-08T01:39:08.742Z,8.93
2022-12-08T01:41:37.632Z,8.95
2022-12-08T01:44:04.449Z,9.52
2022-12-08T01:46:33.119Z,10.80
2022-12-08T01:49:15.871Z,9.30
2022-12-08T01:51:48.491Z,10.27
2022-12-08T01:54:15.770Z,9.25
2022-12-08T01:56:52.911Z,10.15
2022-12-08T01:59:19.804Z,10.13
2022-12-08T02:01:51.181Z,9.30
2022-12-08T02:04:18.072Z,9.32
2022-12-08T02:06:47.444Z,10.05
2022-12-08T02:09:14.716Z,10.98
2022-12-08T02:11:41.292Z,10.95
2022-12-08T02:14:10.831Z,10.32
2022-12-08T02:16:43.358Z,10.13
2022-12-08T02:19:37.839Z,10.13
2022-12-08T02:22:07.365Z,10.80
2022-12-08T02:25:04.724Z,10.23
2022-12-08T02:27:44.215Z,10.02
2022-12-08T02:30:17.201Z,11.23
2022-12-08T02:33:20.736Z,10.70
2022-12-08T02:35:58.622Z,10.85
2022-12-08T02:39:19.544Z,10.35
2022-12-08T02:41:56.897Z,9.88
2022-12-08T02:44:29.484Z,10.05
2022-12-08T02:47:02.696Z,9.40
2022-12-08T02:49:33.337Z,10.27
2022-12-08T02:52:11.942Z,9.73
2022-12-08T02:54:46.465Z,9.40
2022-12-08T02:57:25.108Z,8.52
2022-12-08T03:00:07.512Z,10.65
2022-12-08T03:02:43.198Z,8.95
2022-12-08T03:05:31.456Z,9.23
2022-12-08T03:08:21.147Z,9.20
2022-12-08T03:10:56.115Z,9.27
2022-12-08T03:13:33.314Z,8.38
2022-12-08T03:16:02.754Z,8.85
2022-12-08T03:18:33.709Z,8.00
2022-12-08T03:21:01.073Z,7.88
2022-12-08T03:23:30.236Z,6.90
2022-12-08T03:26:04.447Z,9.40
2022-12-08T03:28:31.640Z,8.50
2022-12-08T03:31:02.486Z,8.38
2022-12-08T03:33:33.709Z,8.20
2022-12-08T03:36:04.131Z,8.27
2022-12-08T03:38:41.578Z,6.97
2022-12-08T03:41:20.568Z,7.07
2022-12-08T03:43:47.757Z,7.75
2022-12-08T03:46:15.828Z,7.50
2022-12-08T03:48:42.932Z,8.25
2022-12-08T03:51:09.896Z,8.10
2022-12-08T03:53:36.653Z,7.82
2022-12-08T03:56:06.025Z,8.00
2022-12-08T03:58:37.260Z,6.80
2022-12-08T04:01:04.152Z,7.43
2022-12-08T04:03:30.747Z,6.53
2022-12-08T04:05:57.429Z,7.75
2022-12-08T04:08:24.226Z,7.47
2022-12-08T04:10:50.934Z,7.00
2022-12-08T04:13:17.488Z,7.45
2022-12-08T04:15:48.568Z,7.00
2022-12-08T04:18:16.104Z,6.95
2022-12-08T04:20:44.436Z,7.00
2022-12-08T04:23:12.259Z,6.28
2022-12-08T04:25:39.560Z,6.55
2022-12-08T04:28:06.595Z,5.75
2022-12-08T04:30:33.817Z,6.70
2022-12-08T04:33:00.716Z,6.32
2022-12-08T04:35:30.186Z,6.15
2022-12-08T04:37:56.995Z,6.25
2022-12-08T04:40:23.975Z,6.10
2022-12-08T04:42:50.572Z,6.57
2022-12-08T04:45:17.357Z,6.05
2022-12-08T04:47:43.931Z,5.97
2022-12-08T04:50:11.013Z,5.70
2022-12-08T04:52:37.648Z,5.88
2022-12-08T04:55:04.528Z,6.50
2022-12-08T04:57:31.101Z,6.40
2022-12-08T04:59:57.664Z,6.68
2022-12-08T05:02:24.378Z,6.28
2022-12-08T05:07:17.653Z,5.90
2022-12-08T05:09:44.891Z,6.05
2022-12-08T05:12:11.518Z,7.13
2022-12-08T05:14:38.162Z,6.72
2022-12-08T05:17:09.349Z,8.30
2022-12-08T05:19:36.408Z,9.35
2022-12-08T05:22:02.961Z,10.00
2022-12-08T05:24:29.593Z,10.10
2022-12-08T05:26:56.185Z,10.00
2022-12-08T05:29:22.804Z,7.78
2022-12-08T05:31:49.540Z,7.07
2022-12-08T05:34:16.253Z,7.30
2022-12-08T05:36:42.936Z,6.80
2022-12-08T05:39:13.239Z,7.40
2022-12-08T05:41:39.927Z,6.78
2022-12-08T05:44:07.485Z,7.45
2022-12-08T05:46:34.506Z,6.85
2022-12-08T05:49:02.406Z,7.35
2022-12-08T05:51:29.645Z,7.20
2022-12-08T05:53:56.702Z,6.43
2022-12-08T05:56:23.609Z,7.68
2022-12-08T05:58:50.467Z,7.18
2022-12-08T06:01:24.610Z,7.35
2022-12-08T06:03:52.084Z,8.07
2022-12-08T06:06:19.111Z,8.70
2022-12-08T06:08:45.748Z,15.52
2022-12-08T06:11:39.147Z,14.55
2022-12-08T06:14:10.346Z,10.23
2022-12-08T06:16:36.972Z,8.40
2022-12-08T06:19:03.604Z,7.57
2022-12-08T06:21:30.259Z,8.18
2022-12-08T06:23:56.920Z,7.60
2022-12-08T06:26:23.561Z,9.30
2022-12-08T06:28:50.397Z,8.48
2022-12-08T06:31:22.765Z,8.63
2022-12-08T06:33:49.764Z,8.48
2022-12-08T06:36:19.964Z,8.50
2022-12-08T06:38:48.103Z,8.48
2022-12-08T06:41:15.082Z,8.20
2022-12-08T06:43:42.487Z,7.60
2022-12-08T06:46:13.369Z,8.30
2022-12-08T06:48:40.074Z,7.95
2022-12-08T06:51:18.777Z,8.40
2022-12-08T06:53:46.596Z,7.72
2022-12-08T06:56:14.356Z,7.40
2022-12-08T06:58:40.990Z,8.15
2022-12-08T07:01:10.034Z,8.20
2022-12-08T07:03:37.778Z,8.73
2022-12-08T07:06:05.171Z,10.73
2022-12-08T07:08:32.888Z,10.63
2022-12-08T07:10:59.518Z,10.15
2022-12-08T07:13:26.092Z,8.65
2022-12-08T07:15:52.667Z,8.20
2022-12-08T07:18:19.284Z,8.00
2022-12-08T07:20:45.950Z,8.73
2022-12-08T07:23:12.676Z,8.30
2022-12-08T07:25:39.219Z,7.78
2022-12-08T07:28:10.908Z,8.63
2022-12-08T07:30:38.559Z,8.25
2022-12-08T07:33:08.161Z,7.68
2022-12-08T07:35:35.361Z,11.73
2022-12-08T07:38:02.560Z,10.80
2022-12-08T07:40:30.060Z,9.60
2022-12-08T07:42:56.689Z,9.85
2022-12-08T07:45:28.292Z,8.90
2022-12-08T07:47:57.811Z,8.77
2022-12-08T07:50:24.599Z,10.73
2022-12-08T07:52:51.171Z,11.30
2022-12-08T07:55:17.706Z,10.43
2022-12-08T07:57:44.390Z,10.30
2022-12-08T08:00:11.522Z,10.07
2022-12-08T08:02:41.633Z,9.73
2022-12-08T08:05:09.023Z,9.65
2022-12-08T08:07:37.215Z,9.32
2022-12-08T08:10:06.809Z,9.52
2022-12-08T08:12:33.756Z,9.57
2022-12-08T08:15:02.885Z,9.48
2022-12-08T08:17:29.832Z,8.95
2022-12-08T08:19:56.863Z,9.30
2022-12-08T08:22:24.911Z,9.20
2022-12-08T08:24:51.651Z,8.25
2022-12-08T08:27:18.304Z,10.75
2022-12-08T08:29:47.171Z,11.20
2022-12-08T08:32:14.549Z,11.35
2022-12-08T08:34:41.112Z,9.93
2022-12-08T08:37:07.738Z,10.32
2022-12-08T08:39:35.784Z,9.85
2022-12-08T08:42:02.346Z,9.95
2022-12-08T08:44:28.980Z,9.15
2022-12-08T08:46:55.656Z,9.40
2022-12-08T08:49:22.320Z,9.55
2022-12-08T08:51:49.120Z,9.48
2022-12-08T08:54:15.759Z,10.05
2022-12-08T08:56:42.370Z,9.60
2022-12-08T08:59:09.663Z,9.95
2022-12-08T09:01:36.386Z,9.23
2022-12-08T09:04:03.284Z,9.40
2022-12-08T09:06:30.131Z,10.27
2022-12-08T09:08:56.726Z,9.77
2022-12-08T09:11:23.759Z,10.20
2022-12-08T09:13:51.760Z,10.02
2022-12-08T09:16:22.100Z,10.15
2022-12-08T09:18:49.514Z,10.20
2022-12-08T09:21:22.720Z,9.38
2022-12-08T09:23:56.491Z,9.60
2022-12-08T09:26:24.029Z,9.85
2022-12-08T09:28:52.536Z,9.68
2022-12-08T09:31:21.096Z,9.48
2022-12-08T09:33:48.876Z,9.63
2022-12-08T09:36:15.467Z,10.45
2022-12-08T09:38:42.169Z,9.45
2022-12-08T09:41:37.561Z,8.65
2022-12-08T09:44:28.939Z,9.32
2022-12-08T09:46:56.568Z,7.78
2022-12-08T09:49:39.430Z,8.75
2022-12-08T09:52:19.665Z,9.15
2022-12-08T09:54:46.302Z,9.20
2022-12-08T09:57:19.234Z,9.55
2022-12-08T09:59:57.640Z,9.40
2022-12-08T10:02:28.118Z,9.48
2022-12-08T10:04:56.543Z,10.00
2022-12-08T10:07:30.748Z,10.07
2022-12-08T10:10:06.509Z,10.48
2022-12-08T10:12:50.374Z,9.73
2022-12-08T10:15:38.739Z,9.27
2022-12-08T10:18:15.052Z,10.80
2022-12-08T10:20:44.215Z,9.98
2022-12-08T10:23:24.467Z,10.20
2022-12-08T10:25:58.946Z,11.00
2022-12-08T10:28:25.595Z,10.55
2022-12-08T10:30:52.251Z,9.20
2022-12-08T10:33:21.758Z,10.30
2022-12-08T10:35:54.046Z,8.93
2022-12-08T10:38:20.658Z,10.15
2022-12-08T10:40:49.691Z,9.98
2022-12-08T10:43:25.823Z,9.90
2022-12-08T10:45:52.704Z,9.23
2022-12-08T10:48:22.546Z,8.55
2022-12-08T10:50:52.382Z,7.95
2022-12-08T10:53:32.115Z,7.85
2022-12-08T10:56:01.665Z,7.13
2022-12-08T10:58:35.728Z,6.95
2022-12-08T11:01:09.575Z,7.43
2022-12-08T11:03:44.884Z,7.35
2022-12-08T11:06:22.498Z,6.25
2022-12-08T11:08:53.893Z,7.10
2022-12-08T11:13:55.841Z,5.57
2022-12-08T11:16:23.351Z,5.93
2022-12-08T11:18:56.988Z,5.30
2022-12-08T11:21:35.431Z,5.18
2022-12-08T11:24:16.703Z,4.85
2022-12-08T11:26:50.092Z,5.03
2022-12-08T11:29:17.386Z,5.50
2022-12-08T11:31:50.076Z,4.57
2022-12-08T11:34:30.712Z,5.30
2022-12-08T11:36:58.561Z,4.85
2022-12-08T11:39:29.760Z,4.90
2022-12-08T11:41:57.857Z,5.13
2022-12-08T11:44:46.309Z,4.88
2022-12-08T11:47:42.347Z,4.40
2022-12-08T11:50:19.630Z,4.38
2022-12-08T11:52:49.706Z,4.25
2022-12-08T11:55:36.949Z,4.55
2022-12-08T11:58:15.727Z,4.28
2022-12-08T12:00:42.380Z,4.22
2022-12-08T12:03:45.608Z,4.05
2022-12-08T12:06:57.372Z,4.03
2022-12-08T12:09:36.351Z,4.38
2022-12-08T12:12:27.525Z,4.28
2022-12-08T12:15:30.700Z,4.82
2022-12-08T12:17:57.258Z,4.72
2022-12-08T12:20:35.991Z,4.40
2022-12-08T12:23:19.720Z,4.22
2022-12-08T12:25:55.222Z,3.92
2022-12-08T12:28:25.348Z,3.97
2022-12-08T12:31:00.840Z,4.20
2022-12-08T12:33:29.955Z,3.80
2022-12-08T12:35:58.630Z,3.88
2022-12-08T12:39:03.993Z,4.47
2022-12-08T12:41:50.638Z,4.40
2022-12-08T12:44:32.736Z,4.90
2022-12-08T12:47:04.592Z,4.10
2022-12-08T12:49:40.462Z,3.90
2022-12-08T12:52:09.715Z,3.30
2022-12-08T12:54:36.296Z,3.35
2022-12-08T12:57:05.457Z,3.92
2022-12-08T12:59:55.488Z,3.50
2022-12-08T13:02:34.018Z,3.90
2022-12-08T13:05:30.508Z,5.97
2022-12-08T13:08:07.729Z,4.35
2022-12-08T13:10:39.467Z,7.93
2022-12-08T13:13:18.005Z,6.60
2022-12-08T13:15:52.465Z,4.47
2022-12-08T13:18:20.985Z,6.07
2022-12-08T13:20:52.920Z,10.60
2022-12-08T13:23:43.459Z,5.53
2022-12-08T13:26:19.325Z,5.60
2022-12-08T13:29:01.343Z,4.90
2022-12-08T13:31:46.783Z,4.30
2022-12-08T13:34:22.740Z,5.70
2022-12-08T13:37:00.166Z,5.00
2022-12-08T13:40:01.625Z,3.88
2022-12-08T13:42:51.167Z,5.55
2022-12-08T13:45:43.590Z,5.68
2022-12-08T13:49:36.577Z,4.80
2022-12-08T13:57:25.987Z,4.80
2022-12-08T13:59:52.699Z,10.25
2022-12-08T14:02:47.136Z,9.30
2022-12-08T14:05:19.043Z,7.60
2022-12-08T14:07:49.898Z,6.53
2022-12-08T14:10:26.978Z,6.95
2022-12-08T14:13:03.736Z,6.88
2022-12-08T14:15:37.837Z,6.70
2022-12-08T14:18:07.093Z,5.68
2022-12-08T14:20:57.897Z,6.72
2022-12-08T14:23:22.665Z,6.28
2022-12-08T14:25:49.311Z,7.70
2022-12-08T14:28:16.662Z,9.25
2022-12-08T14:30:43.374Z,9.35
2022-12-08T14:33:16.742Z,9.18
2022-12-08T14:35:49.163Z,7.30
2022-12-08T14:38:17.814Z,9.10
2022-12-08T14:40:49.799Z,7.25
2022-12-08T14:43:20.716Z,6.60
2022-12-08T14:45:49.136Z,6.93
2022-12-08T14:48:30.920Z,5.50
2022-12-08T14:51:03.485Z,6.28
2022-12-08T14:53:53.502Z,6.63
2022-12-08T14:56:32.678Z,6.22
2022-12-08T14:59:32.374Z,5.30
2022-12-08T15:02:24.130Z,5.88
2022-12-08T15:04:56.845Z,6.60
2022-12-08T15:07:26.658Z,6.15
2022-12-08T15:10:14.774Z,6.18
2022-12-08T15:13:00.268Z,5.85
2022-12-08T15:15:27.623Z,6.30
2022-12-08T15:18:17.104Z,5.82
2022-12-08T15:20:43.986Z,6.00
2022-12-08T15:23:30.614Z,15.68
2022-12-08T15:25:59.070Z,8.70
2022-12-08T15:28:30.379Z,12.73
2022-12-08T15:33:24.641Z,7.72
2022-12-08T15:35:51.647Z,8.75
2022-12-08T15:38:28.887Z,7.63
2022-12-08T15:40:58.669Z,4.65
2022-12-08T15:43:25.400Z,5.82
2022-12-08T15:45:59.527Z,5.13
2022-12-08T15:48:29.368Z,4.43
2022-12-08T15:50:56.607Z,4.40
2022-12-08T15:53:26.063Z,5.97
2022-12-08T15:56:25.934Z,5.72
2022-12-08T15:58:56.606Z,4.40
2022-12-08T16:01:24.434Z,4.60
2022-12-08T16:09:26.128Z,4.55
2022-12-08T16:12:11.442Z,4.22
2022-12-08T16:17:27.065Z,4.97
2022-12-08T16:19:54.290Z,6.95
2022-12-08T16:25:21.826Z,6.55
2022-12-08T16:28:44.798Z,6.22
2022-12-08T16:30:39.739Z,11.82
2022-12-08T16:33:06.307Z,12.68
2022-12-08T16:35:33.166Z,9.98
2022-12-08T16:37:59.790Z,10.00
2022-12-08T16:40:26.448Z,11.48
2022-12-08T16:42:53.363Z,10.00
2022-12-08T16:45:24.313Z,7.43
2022-12-08T16:47:57.038Z,7.82
2022-12-08T16:50:29.256Z,11.45
2022-12-08T16:53:05.565Z,9.70
2022-12-08T16:55:33.022Z,9.23
2022-12-08T16:57:59.767Z,11.20
2022-12-08T17:00:28.507Z,14.20
2022-12-08T17:02:55.746Z,15.70
2022-12-08T17:05:25.072Z,16.48
2022-12-08T17:07:53.334Z,13.43
2022-12-08T17:10:25.066Z,13.20
2022-12-08T17:12:52.600Z,12.38
2022-12-08T17:15:22.157Z,11.45
2022-12-08T17:17:49.549Z,11.15
2022-12-08T17:20:19.224Z,11.77
2022-12-08T17:22:46.932Z,11.68
2022-12-08T17:25:13.986Z,12.02
2022-12-08T17:27:41.388Z,11.68
2022-12-08T17:30:11.070Z,11.75
2022-12-08T17:32:38.207Z,11.88
2022-12-08T17:35:05.974Z,10.95
2022-12-08T17:37:32.768Z,11.00
2022-12-08T17:39:59.376Z,12.15
2022-12-08T17:42:27.166Z,12.45
2022-12-08T17:44:54.236Z,11.57
2022-12-08T17:47:20.824Z,11.18
2022-12-08T17:49:47.419Z,10.73
2022-12-08T17:52:14.035Z,9.57
2022-12-08T17:54:40.713Z,11.60
2022-12-08T17:57:07.362Z,12.90
2022-12-08T17:59:33.965Z,12.82
2022-12-08T18:02:04.422Z,13.10
2022-12-08T18:04:31.177Z,11.70
2022-12-08T18:07:01.296Z,13.90
2022-12-08T18:09:31.166Z,13.43
2022-12-08T18:11:58.057Z,12.90
2022-12-08T18:14:24.896Z,12.93
2022-12-08T18:16:51.669Z,12.10
2022-12-08T18:19:18.617Z,14.50
2022-12-08T18:21:45.213Z,14.38
2022-12-08T18:24:22.010Z,12.95
2022-12-08T18:26:50.597Z,14.05
2022-12-08T18:29:17.418Z,14.70
2022-12-08T18:31:43.997Z,14.23
2022-12-08T18:34:10.576Z,13.82
2022-12-08T18:36:37.161Z,14.38
2022-12-08T18:39:08.907Z,15.30
2022-12-08T18:41:40.379Z,15.50
2022-12-08T18:44:08.814Z,16.05
2022-12-08T18:46:35.727Z,14.20
2022-12-08T18:49:02.348Z,15.32
2022-12-08T18:51:28.955Z,15.95
2022-12-08T18:53:55.503Z,16.67
2022-12-08T18:56:31.428Z,15.13
2022-12-08T18:59:03.624Z,15.48
2022-12-08T19:01:35.481Z,17.30
2022-12-08T19:04:27.288Z,14.70
2022-12-08T19:06:52.748Z,18.10
2022-12-08T19:09:20.007Z,17.55
2022-12-08T19:11:46.815Z,14.65
2022-12-08T19:14:13.357Z,14.75
2022-12-08T19:16:39.979Z,17.15
2022-12-08T19:19:06.585Z,18.00
2022-12-08T19:21:33.431Z,14.82
2022-12-08T19:24:00.359Z,15.30
2022-12-08T19:26:28.354Z,16.15
2022-12-08T19:28:55.017Z,15.85
2022-12-08T19:31:21.764Z,16.13
2022-12-08T19:33:48.363Z,17.95
2022-12-08T19:36:18.292Z,13.52
2022-12-08T19:39:04.002Z,13.95
2022-12-08T19:41:49.172Z,14.95
2022-12-08T19:44:42.753Z,13.48
2022-12-08T19:47:09.655Z,15.98
2022-12-08T19:49:36.593Z,17.38
2022-12-08T19:52:03.956Z,16.13
2022-12-08T19:54:30.560Z,15.90
2022-12-08T19:56:57.340Z,16.35
2022-12-08T19:59:26.448Z,24.17
2022-12-08T20:01:55.759Z,16.90
2022-12-08T20:04:23.766Z,15.38
2022-12-08T20:06:52.381Z,13.70
2022-12-08T20:09:19.790Z,13.52
2022-12-08T20:11:46.726Z,13.07
2022-12-08T20:14:13.324Z,12.60
2022-12-08T20:16:41.740Z,12.65
2022-12-08T20:19:09.086Z,12.60
2022-12-08T20:21:35.629Z,12.75
2022-12-08T20:24:02.245Z,12.43
2022-12-08T20:26:28.832Z,13.50
2022-12-08T20:28:55.439Z,11.68
2022-12-08T20:31:27.296Z,12.13
2022-12-08T20:33:55.376Z,11.60
2022-12-08T20:36:22.810Z,11.23
2022-12-08T20:38:51.481Z,12.77
2022-12-08T20:41:19.224Z,12.57
2022-12-08T20:43:47.154Z,12.30
2022-12-08T20:46:16.220Z,11.32
2022-12-08T20:48:43.956Z,11.38
2022-12-08T20:51:18.897Z,17.70
2022-12-08T20:53:46.109Z,14.10
2022-12-08T20:56:21.268Z,13.68
2022-12-08T20:58:49.191Z,12.60
2022-12-08T21:01:18.724Z,12.18
2022-12-08T21:03:46.156Z,12.88
2022-12-08T21:06:13.411Z,12.52
2022-12-08T21:08:41.409Z,12.30
2022-12-08T21:11:09.460Z,10.43
2022-12-08T21:13:39.523Z,10.25
2022-12-08T21:16:09.143Z,12.00
2022-12-08T21:18:39.624Z,12.88
2022-12-08T21:21:10.705Z,12.52
2022-12-08T21:23:37.796Z,12.88
2022-12-08T21:26:14.366Z,13.93
2022-12-08T21:28:41.935Z,12.30
2022-12-08T21:31:10.261Z,12.88
2022-12-08T21:33:37.241Z,13.38
2022-12-08T21:36:20.398Z,13.77
2022-12-08T21:38:47.631Z,12.82
2022-12-08T21:41:37.270Z,13.20
2022-12-08T21:44:05.071Z,13.90
2022-12-08T21:46:32.082Z,15.18
2022-12-08T21:48:58.897Z,13.90
2022-12-08T21:51:25.775Z,13.98
2022-12-08T21:53:52.610Z,14.68
2022-12-08T21:56:20.789Z,17.83
2022-12-08T21:58:47.424Z,15.98
2022-12-08T22:01:16.620Z,17.17
2022-12-08T22:03:43.650Z,17.25
2022-12-08T22:06:12.817Z,16.00
2022-12-08T22:08:39.913Z,15.75
2022-12-08T22:11:08.098Z,14.40
2022-12-08T22:13:36.620Z,15.48
2022-12-08T22:16:06.681Z,14.88
2022-12-08T22:18:34.670Z,15.45
2022-12-08T22:21:02.540Z,14.80
2022-12-08T22:23:29.269Z,13.27
2022-12-08T22:26:00.077Z,17.02
2022-12-08T22:28:29.954Z,15.55
2022-12-08T22:30:56.653Z,15.43
2022-12-08T22:33:23.334Z,14.77
2022-12-08T22:36:06.293Z,12.98
2022-12-08T22:38:36.542Z,12.57
2022-12-08T22:41:04.895Z,13.50
2022-12-08T22:43:33.747Z,12.90
2022-12-08T22:46:00.692Z,13.90
2022-12-08T22:48:28.064Z,15.00
2022-12-08T22:50:59.683Z,14.23
2022-12-08T22:53:26.872Z,13.93
2022-12-08T22:55:53.805Z,14.15
2022-12-08T22:58:20.508Z,13.38
2022-12-08T23:00:47.155Z,14.68
2022-12-08T23:03:13.802Z,14.73
2022-12-08T23:05:40.997Z,14.75
2022-12-08T23:08:08.517Z,14.38
2022-12-08T23:10:35.813Z,14.40
2022-12-08T23:13:05.284Z,13.80
2022-12-08T23:15:32.100Z,14.00
2022-12-08T23:17:58.820Z,13.75
2022-12-08T23:20:25.775Z,14.68
2022-12-08T23:22:52.554Z,14.52
2022-12-08T23:25:22.117Z,13.95
2022-12-08T23:27:48.693Z,13.25
2022-12-08T23:30:15.845Z,14.30
2022-12-08T23:32:42.803Z,12.65
2022-12-08T23:35:09.679Z,13.48
2022-12-08T23:37:36.571Z,12.68
2022-12-08T23:40:05.367Z,12.40
2022-12-08T23:42:33.934Z,13.63
2022-12-08T23:45:00.798Z,13.27
2022-12-08T23:47:28.988Z,11.82
2022-12-08T23:49:55.681Z,13.30
2022-12-08T23:52:22.260Z,13.02
2022-12-08T23:54:54.599Z,12.48
2022-12-08T23:57:21.789Z,11.63
2022-12-08T23:59:48.374Z,14.57
